sensor_id;sensor_type;location;lat;lon;timestamp;P1;durP1;ratioP1;P2;durP2;ratioP2
29200;SDS011;16244;51.956;12.980;2023-08-20T00:01:54;37.42;;;26.73;;
29200;SDS011;16244;51.956;12.980;2023-08-20T00:04:24;37.27;;;32.27;;
29200;SDS011;16244;51.956;12.980;2023-08-20T00:06:53;32.70;;;27.67;;
29200;SDS011;16244;51.956;12.980;2023-08-20T00:09:21;30.97;;;27.83;;
29200;SDS011;16244;51.956;12.980;2023-08-20T00:11:49;44.20;;;34.70;;
29200;SDS011;16244;51.956;12.980;2023-08-20T00:14:16;40.77;;;33.13;;
29200;SDS011;16244;51.956;12.980;2023-08-20T00:16:45;46.00;;;37.72;;
29200;SDS011;16244;51.956;12.980;2023-08-20T00:19:14;34.07;;;30.83;;
29200;SDS011;16244;51.956;12.980;2023-08-20T00:21:42;45.67;;;40.67;;
29200;SDS011;16244;51.956;12.980;2023-08-20T00:24:12;41.55;;;34.70;;
29200;SDS011;16244;51.956;12.980;2023-08-20T00:26:40;41.87;;;34.73;;
29200;SDS011;16244;51.956;12.980;2023-08-20T00:29:08;38.43;;;34.63;;
29200;SDS011;16244;51.956;12.980;2023-08-20T00:31:35;47.13;;;34.90;;
29200;SDS011;16244;51.956;12.980;2023-08-20T00:34:03;41.20;;;31.23;;
29200;SDS011;16244;51.956;12.980;2023-08-20T00:36:31;40.80;;;34.88;;
29200;SDS011;16244;51.956;12.980;2023-08-20T00:38:59;42.10;;;32.23;;
29200;SDS011;16244;51.956;12.980;2023-08-20T00:41:26;42.90;;;29.97;;
29200;SDS011;16244;51.956;12.980;2023-08-20T00:43:54;63.30;;;39.67;;
29200;SDS011;16244;51.956;12.980;2023-08-20T00:46:26;40.80;;;31.73;;
29200;SDS011;16244;51.956;12.980;2023-08-20T00:48:54;42.10;;;32.17;;
29200;SDS011;16244;51.956;12.980;2023-08-20T00:51:21;34.07;;;30.57;;
29200;SDS011;16244;51.956;12.980;2023-08-20T00:53:51;44.40;;;40.20;;
29200;SDS011;16244;51.956;12.980;2023-08-20T00:56:19;50.57;;;45.63;;
29200;SDS011;16244;51.956;12.980;2023-08-20T00:58:47;46.47;;;39.33;;
29200;SDS011;16244;51.956;12.980;2023-08-20T01:01:15;37.40;;;31.70;;
29200;SDS011;16244;51.956;12.980;2023-08-20T01:03:43;44.03;;;39.30;;
29200;SDS011;16244;51.956;12.980;2023-08-20T01:06:12;42.23;;;36.40;;
29200;SDS011;16244;51.956;12.980;2023-08-20T01:08:45;52.42;;;43.90;;
29200;SDS011;16244;51.956;12.980;2023-08-20T01:11:20;32.90;;;26.07;;
29200;SDS011;16244;51.956;12.980;2023-08-20T01:13:54;42.47;;;32.83;;
29200;SDS011;16244;51.956;12.980;2023-08-20T01:16:21;36.13;;;30.10;;
29200;SDS011;16244;51.956;12.980;2023-08-20T01:18:49;33.13;;;29.60;;
29200;SDS011;16244;51.956;12.980;2023-08-20T01:21:20;38.73;;;28.00;;
29200;SDS011;16244;51.956;12.980;2023-08-20T01:24:01;40.13;;;33.40;;
29200;SDS011;16244;51.956;12.980;2023-08-20T01:26:49;40.17;;;29.37;;
29200;SDS011;16244;51.956;12.980;2023-08-20T01:29:32;38.07;;;33.73;;
29200;SDS011;16244;51.956;12.980;2023-08-20T01:32:00;37.23;;;33.33;;
29200;SDS011;16244;51.956;12.980;2023-08-20T01:34:30;37.37;;;32.60;;
29200;SDS011;16244;51.956;12.980;2023-08-20T01:36:58;40.27;;;36.37;;
29200;SDS011;16244;51.956;12.980;2023-08-20T01:39:26;38.53;;;34.77;;
29200;SDS011;16244;51.956;12.980;2023-08-20T01:41:53;39.08;;;29.95;;
29200;SDS011;16244;51.956;12.980;2023-08-20T01:44:21;41.20;;;32.50;;
29200;SDS011;16244;51.956;12.980;2023-08-20T01:46:49;42.90;;;38.17;;
29200;SDS011;16244;51.956;12.980;2023-08-20T01:49:17;35.23;;;31.63;;
29200;SDS011;16244;51.956;12.980;2023-08-20T01:51:44;32.07;;;28.83;;
29200;SDS011;16244;51.956;12.980;2023-08-20T01:54:12;34.90;;;31.23;;
29200;SDS011;16244;51.956;12.980;2023-08-20T01:56:39;35.30;;;29.03;;
29200;SDS011;16244;51.956;12.980;2023-08-20T01:59:07;36.40;;;29.30;;
29200;SDS011;16244;51.956;12.980;2023-08-20T02:01:34;36.03;;;27.97;;
29200;SDS011;16244;51.956;12.980;2023-08-20T02:04:03;35.37;;;31.67;;
29200;SDS011;16244;51.956;12.980;2023-08-20T02:06:30;34.90;;;27.27;;
29200;SDS011;16244;51.956;12.980;2023-08-20T02:08:58;42.90;;;30.00;;
29200;SDS011;16244;51.956;12.980;2023-08-20T02:11:25;33.17;;;29.67;;
29200;SDS011;16244;51.956;12.980;2023-08-20T02:13:53;41.10;;;28.87;;
29200;SDS011;16244;51.956;12.980;2023-08-20T02:16:20;35.40;;;31.60;;
29200;SDS011;16244;51.956;12.980;2023-08-20T02:18:48;34.60;;;29.57;;
29200;SDS011;16244;51.956;12.980;2023-08-20T02:21:17;42.93;;;35.80;;
29200;SDS011;16244;51.956;12.980;2023-08-20T02:23:44;48.43;;;36.90;;
29200;SDS011;16244;51.956;12.980;2023-08-20T02:26:12;36.03;;;32.43;;
29200;SDS011;16244;51.956;12.980;2023-08-20T02:28:40;54.17;;;48.87;;
29200;SDS011;16244;51.956;12.980;2023-08-20T02:31:08;48.07;;;41.90;;
29200;SDS011;16244;51.956;12.980;2023-08-20T02:33:35;46.80;;;34.20;;
29200;SDS011;16244;51.956;12.980;2023-08-20T02:36:03;45.33;;;33.20;;
29200;SDS011;16244;51.956;12.980;2023-08-20T02:38:32;67.47;;;53.80;;
29200;SDS011;16244;51.956;12.980;2023-08-20T02:41:00;46.40;;;37.93;;
29200;SDS011;16244;51.956;12.980;2023-08-20T02:43:28;66.43;;;49.40;;
29200;SDS011;16244;51.956;12.980;2023-08-20T02:45:56;56.13;;;39.03;;
29200;SDS011;16244;51.956;12.980;2023-08-20T02:48:23;67.20;;;42.17;;
29200;SDS011;16244;51.956;12.980;2023-08-20T02:50:52;75.30;;;55.63;;
29200;SDS011;16244;51.956;12.980;2023-08-20T02:53:20;44.17;;;37.37;;
29200;SDS011;16244;51.956;12.980;2023-08-20T02:55:49;51.13;;;43.03;;
29200;SDS011;16244;51.956;12.980;2023-08-20T02:58:17;49.40;;;41.40;;
29200;SDS011;16244;51.956;12.980;2023-08-20T03:00:44;87.20;;;58.60;;
29200;SDS011;16244;51.956;12.980;2023-08-20T03:03:12;49.70;;;37.13;;
29200;SDS011;16244;51.956;12.980;2023-08-20T03:05:39;74.60;;;43.67;;
29200;SDS011;16244;51.956;12.980;2023-08-20T03:08:07;62.13;;;41.63;;
29200;SDS011;16244;51.956;12.980;2023-08-20T03:10:35;57.22;;;46.65;;
29200;SDS011;16244;51.956;12.980;2023-08-20T03:13:04;54.90;;;37.73;;
29200;SDS011;16244;51.956;12.980;2023-08-20T03:15:32;65.60;;;46.47;;
29200;SDS011;16244;51.956;12.980;2023-08-20T03:17:59;77.00;;;69.70;;
29200;SDS011;16244;51.956;12.980;2023-08-20T03:20:27;53.90;;;45.33;;
29200;SDS011;16244;51.956;12.980;2023-08-20T03:22:57;58.27;;;49.00;;
29200;SDS011;16244;51.956;12.980;2023-08-20T03:25:24;66.27;;;51.60;;
29200;SDS011;16244;51.956;12.980;2023-08-20T03:27:52;76.97;;;69.70;;
29200;SDS011;16244;51.956;12.980;2023-08-20T03:30:21;72.43;;;62.47;;
29200;SDS011;16244;51.956;12.980;2023-08-20T03:32:48;79.70;;;54.03;;
29200;SDS011;16244;51.956;12.980;2023-08-20T03:35:16;59.00;;;47.63;;
29200;SDS011;16244;51.956;12.980;2023-08-20T03:37:43;65.87;;;48.93;;
29200;SDS011;16244;51.956;12.980;2023-08-20T03:40:11;62.57;;;53.97;;
29200;SDS011;16244;51.956;12.980;2023-08-20T03:42:38;57.73;;;50.87;;
29200;SDS011;16244;51.956;12.980;2023-08-20T03:45:06;73.07;;;65.37;;
29200;SDS011;16244;51.956;12.980;2023-08-20T03:47:36;60.47;;;54.00;;
29200;SDS011;16244;51.956;12.980;2023-08-20T03:50:03;54.57;;;43.00;;
29200;SDS011;16244;51.956;12.980;2023-08-20T03:52:31;62.42;;;56.17;;
29200;SDS011;16244;51.956;12.980;2023-08-20T03:54:59;57.30;;;43.20;;
29200;SDS011;16244;51.956;12.980;2023-08-20T03:57:26;57.83;;;44.53;;
29200;SDS011;16244;51.956;12.980;2023-08-20T03:59:54;59.03;;;50.07;;
29200;SDS011;16244;51.956;12.980;2023-08-20T04:02:21;49.05;;;43.92;;
29200;SDS011;16244;51.956;12.980;2023-08-20T04:04:51;52.57;;;46.83;;
29200;SDS011;16244;51.956;12.980;2023-08-20T04:07:18;57.23;;;51.17;;
29200;SDS011;16244;51.956;12.980;2023-08-20T04:09:46;69.90;;;50.60;;
29200;SDS011;16244;51.956;12.980;2023-08-20T04:12:13;72.73;;;65.80;;
29200;SDS011;16244;51.956;12.980;2023-08-20T04:14:41;54.00;;;48.27;;
29200;SDS011;16244;51.956;12.980;2023-08-20T04:17:08;58.50;;;52.13;;
29200;SDS011;16244;51.956;12.980;2023-08-20T04:19:36;55.00;;;49.87;;
29200;SDS011;16244;51.956;12.980;2023-08-20T04:22:05;56.87;;;46.20;;
29200;SDS011;16244;51.956;12.980;2023-08-20T04:24:32;51.93;;;46.40;;
29200;SDS011;16244;51.956;12.980;2023-08-20T04:27:00;67.80;;;61.60;;
29200;SDS011;16244;51.956;12.980;2023-08-20T04:29:27;51.97;;;42.90;;
29200;SDS011;16244;51.956;12.980;2023-08-20T04:31:54;50.47;;;45.80;;
29200;SDS011;16244;51.956;12.980;2023-08-20T04:34:22;47.67;;;42.80;;
29200;SDS011;16244;51.956;12.980;2023-08-20T04:36:49;50.53;;;45.30;;
29200;SDS011;16244;51.956;12.980;2023-08-20T04:39:18;56.63;;;46.10;;
29200;SDS011;16244;51.956;12.980;2023-08-20T04:41:46;74.53;;;67.63;;
29200;SDS011;16244;51.956;12.980;2023-08-20T04:44:13;53.27;;;44.30;;
29200;SDS011;16244;51.956;12.980;2023-08-20T04:46:42;56.43;;;50.37;;
29200;SDS011;16244;51.956;12.980;2023-08-20T04:49:09;52.20;;;46.97;;
29200;SDS011;16244;51.956;12.980;2023-08-20T04:51:38;63.07;;;57.33;;
29200;SDS011;16244;51.956;12.980;2023-08-20T04:54:05;44.83;;;40.10;;
29200;SDS011;16244;51.956;12.980;2023-08-20T04:56:34;49.23;;;44.20;;
29200;SDS011;16244;51.956;12.980;2023-08-20T04:59:01;68.13;;;61.83;;
29200;SDS011;16244;51.956;12.980;2023-08-20T05:01:29;69.27;;;63.47;;
29200;SDS011;16244;51.956;12.980;2023-08-20T05:03:57;55.53;;;49.63;;
29200;SDS011;16244;51.956;12.980;2023-08-20T05:06:24;66.27;;;60.33;;
29200;SDS011;16244;51.956;12.980;2023-08-20T05:08:51;55.07;;;49.37;;
29200;SDS011;16244;51.956;12.980;2023-08-20T05:11:19;50.67;;;45.10;;
29200;SDS011;16244;51.956;12.980;2023-08-20T05:13:49;65.97;;;59.93;;
29200;SDS011;16244;51.956;12.980;2023-08-20T05:16:16;56.33;;;50.20;;
29200;SDS011;16244;51.956;12.980;2023-08-20T05:18:44;67.60;;;61.07;;
29200;SDS011;16244;51.956;12.980;2023-08-20T05:21:12;66.40;;;59.60;;
29200;SDS011;16244;51.956;12.980;2023-08-20T05:23:40;53.67;;;47.93;;
29200;SDS011;16244;51.956;12.980;2023-08-20T05:26:07;59.23;;;52.73;;
29200;SDS011;16244;51.956;12.980;2023-08-20T05:28:35;58.57;;;53.37;;
29200;SDS011;16244;51.956;12.980;2023-08-20T05:31:04;59.63;;;53.83;;
29200;SDS011;16244;51.956;12.980;2023-08-20T05:33:31;56.50;;;51.00;;
29200;SDS011;16244;51.956;12.980;2023-08-20T05:35:59;55.97;;;47.27;;
29200;SDS011;16244;51.956;12.980;2023-08-20T05:38:26;58.57;;;53.30;;
29200;SDS011;16244;51.956;12.980;2023-08-20T05:40:54;53.50;;;48.07;;
29200;SDS011;16244;51.956;12.980;2023-08-20T05:43:22;48.53;;;43.50;;
29200;SDS011;16244;51.956;12.980;2023-08-20T05:45:49;67.33;;;61.07;;
29200;SDS011;16244;51.956;12.980;2023-08-20T05:48:18;52.20;;;45.13;;
29200;SDS011;16244;51.956;12.980;2023-08-20T05:50:46;44.90;;;40.53;;
29200;SDS011;16244;51.956;12.980;2023-08-20T05:53:13;52.57;;;47.17;;
29200;SDS011;16244;51.956;12.980;2023-08-20T05:55:41;45.50;;;41.17;;
29200;SDS011;16244;51.956;12.980;2023-08-20T05:58:08;47.73;;;41.23;;
29200;SDS011;16244;51.956;12.980;2023-08-20T06:00:36;57.60;;;51.80;;
29200;SDS011;16244;51.956;12.980;2023-08-20T06:03:04;51.50;;;46.17;;
29200;SDS011;16244;51.956;12.980;2023-08-20T06:05:34;41.47;;;37.17;;
29200;SDS011;16244;51.956;12.980;2023-08-20T06:08:03;52.67;;;47.20;;
29200;SDS011;16244;51.956;12.980;2023-08-20T06:10:30;43.23;;;37.83;;
29200;SDS011;16244;51.956;12.980;2023-08-20T06:12:58;54.97;;;48.97;;
29200;SDS011;16244;51.956;12.980;2023-08-20T06:15:25;51.17;;;40.67;;
29200;SDS011;16244;51.956;12.980;2023-08-20T06:17:53;51.20;;;46.60;;
29200;SDS011;16244;51.956;12.980;2023-08-20T06:20:20;52.50;;;47.23;;
29200;SDS011;16244;51.956;12.980;2023-08-20T06:22:49;55.13;;;49.83;;
29200;SDS011;16244;51.956;12.980;2023-08-20T06:25:16;53.27;;;47.77;;
29200;SDS011;16244;51.956;12.980;2023-08-20T06:27:44;45.37;;;40.47;;
29200;SDS011;16244;51.956;12.980;2023-08-20T06:30:12;33.87;;;30.20;;
29200;SDS011;16244;51.956;12.980;2023-08-20T06:32:39;33.47;;;29.77;;
29200;SDS011;16244;51.956;12.980;2023-08-20T06:35:07;37.20;;;33.03;;
29200;SDS011;16244;51.956;12.980;2023-08-20T06:37:35;47.30;;;39.30;;
29200;SDS011;16244;51.956;12.980;2023-08-20T06:40:05;23.60;;;21.30;;
29200;SDS011;16244;51.956;12.980;2023-08-20T06:42:33;43.03;;;39.33;;
29200;SDS011;16244;51.956;12.980;2023-08-20T06:45:01;27.90;;;25.27;;
29200;SDS011;16244;51.956;12.980;2023-08-20T06:47:28;39.13;;;35.93;;
29200;SDS011;16244;51.956;12.980;2023-08-20T06:49:55;32.63;;;29.83;;
29200;SDS011;16244;51.956;12.980;2023-08-20T06:52:23;29.63;;;26.53;;
29200;SDS011;16244;51.956;12.980;2023-08-20T06:54:50;19.83;;;18.00;;
29200;SDS011;16244;51.956;12.980;2023-08-20T06:57:19;12.67;;;11.57;;
29200;SDS011;16244;51.956;12.980;2023-08-20T06:59:47;11.97;;;10.93;;
29200;SDS011;16244;51.956;12.980;2023-08-20T07:02:15;38.30;;;25.80;;
29200;SDS011;16244;51.956;12.980;2023-08-20T07:04:42;10.07;;;9.13;;
29200;SDS011;16244;51.956;12.980;2023-08-20T07:07:10;18.70;;;17.27;;
29200;SDS011;16244;51.956;12.980;2023-08-20T07:09:40;13.47;;;12.43;;
29200;SDS011;16244;51.956;12.980;2023-08-20T07:12:08;9.52;;;8.93;;
29200;SDS011;16244;51.956;12.980;2023-08-20T07:14:37;12.52;;;11.63;;
29200;SDS011;16244;51.956;12.980;2023-08-20T07:17:05;12.00;;;10.97;;
29200;SDS011;16244;51.956;12.980;2023-08-20T07:19:32;3.40;;;3.30;;
29200;SDS011;16244;51.956;12.980;2023-08-20T07:22:00;11.37;;;10.53;;
29200;SDS011;16244;51.956;12.980;2023-08-20T07:24:27;6.53;;;6.10;;
29200;SDS011;16244;51.956;12.980;2023-08-20T07:26:56;6.60;;;6.20;;
29200;SDS011;16244;51.956;12.980;2023-08-20T07:29:27;7.53;;;7.13;;
29200;SDS011;16244;51.956;12.980;2023-08-20T07:31:57;10.63;;;6.70;;
29200;SDS011;16244;51.956;12.980;2023-08-20T07:34:29;4.37;;;4.17;;
29200;SDS011;16244;51.956;12.980;2023-08-20T07:36:59;4.53;;;4.20;;
29200;SDS011;16244;51.956;12.980;2023-08-20T07:39:27;6.50;;;5.90;;
29200;SDS011;16244;51.956;12.980;2023-08-20T07:41:54;5.55;;;5.10;;
29200;SDS011;16244;51.956;12.980;2023-08-20T07:44:22;3.37;;;3.17;;
29200;SDS011;16244;51.956;12.980;2023-08-20T07:46:49;6.07;;;5.13;;
29200;SDS011;16244;51.956;12.980;2023-08-20T07:49:18;5.33;;;5.13;;
29200;SDS011;16244;51.956;12.980;2023-08-20T07:51:45;4.30;;;4.10;;
29200;SDS011;16244;51.956;12.980;2023-08-20T07:54:14;2.80;;;2.70;;
29200;SDS011;16244;51.956;12.980;2023-08-20T07:56:41;9.23;;;8.60;;
29200;SDS011;16244;51.956;12.980;2023-08-20T07:59:09;2.83;;;2.63;;
29200;SDS011;16244;51.956;12.980;2023-08-20T08:01:36;6.73;;;6.20;;
29200;SDS011;16244;51.956;12.980;2023-08-20T08:04:04;5.53;;;5.23;;
29200;SDS011;16244;51.956;12.980;2023-08-20T08:06:33;6.90;;;6.50;;
29200;SDS011;16244;51.956;12.980;2023-08-20T08:09:18;5.63;;;5.30;;
29200;SDS011;16244;51.956;12.980;2023-08-20T08:11:47;5.60;;;5.40;;
29200;SDS011;16244;51.956;12.980;2023-08-20T08:14:15;7.23;;;6.77;;
29200;SDS011;16244;51.956;12.980;2023-08-20T08:16:44;4.53;;;4.33;;
29200;SDS011;16244;51.956;12.980;2023-08-20T08:19:12;5.43;;;5.13;;
29200;SDS011;16244;51.956;12.980;2023-08-20T08:21:42;7.87;;;7.40;;
29200;SDS011;16244;51.956;12.980;2023-08-20T08:24:10;7.23;;;5.30;;
29200;SDS011;16244;51.956;12.980;2023-08-20T08:26:38;4.80;;;4.60;;
29200;SDS011;16244;51.956;12.980;2023-08-20T08:29:07;4.47;;;4.30;;
29200;SDS011;16244;51.956;12.980;2023-08-20T08:31:35;4.80;;;4.60;;
29200;SDS011;16244;51.956;12.980;2023-08-20T08:34:03;5.20;;;4.93;;
29200;SDS011;16244;51.956;12.980;2023-08-20T08:36:31;2.93;;;2.83;;
29200;SDS011;16244;51.956;12.980;2023-08-20T08:39:00;2.33;;;2.33;;
29200;SDS011;16244;51.956;12.980;2023-08-20T08:41:28;1.60;;;1.58;;
29200;SDS011;16244;51.956;12.980;2023-08-20T08:43:57;3.22;;;3.13;;
29200;SDS011;16244;51.956;12.980;2023-08-20T08:46:25;1.80;;;1.50;;
29200;SDS011;16244;51.956;12.980;2023-08-20T08:48:53;1.50;;;1.40;;
29200;SDS011;16244;51.956;12.980;2023-08-20T08:51:22;2.70;;;2.60;;
29200;SDS011;16244;51.956;12.980;2023-08-20T08:53:52;5.35;;;4.78;;
29200;SDS011;16244;51.956;12.980;2023-08-20T08:56:22;2.50;;;2.40;;
29200;SDS011;16244;51.956;12.980;2023-08-20T08:58:50;2.38;;;2.28;;
29200;SDS011;16244;51.956;12.980;2023-08-20T09:01:17;2.10;;;2.10;;
29200;SDS011;16244;51.956;12.980;2023-08-20T09:03:44;1.27;;;1.27;;
29200;SDS011;16244;51.956;12.980;2023-08-20T09:06:13;2.75;;;2.65;;
29200;SDS011;16244;51.956;12.980;2023-08-20T09:08:40;1.98;;;1.98;;
29200;SDS011;16244;51.956;12.980;2023-08-20T09:11:08;3.03;;;2.83;;
29200;SDS011;16244;51.956;12.980;2023-08-20T09:13:37;1.73;;;1.73;;
29200;SDS011;16244;51.956;12.980;2023-08-20T09:16:06;2.78;;;1.70;;
29200;SDS011;16244;51.956;12.980;2023-08-20T09:18:37;2.10;;;2.00;;
29200;SDS011;16244;51.956;12.980;2023-08-20T09:21:06;2.13;;;2.03;;
29200;SDS011;16244;51.956;12.980;2023-08-20T09:23:34;2.03;;;1.92;;
29200;SDS011;16244;51.956;12.980;2023-08-20T09:26:02;3.15;;;3.03;;
29200;SDS011;16244;51.956;12.980;2023-08-20T09:28:31;1.38;;;1.38;;
29200;SDS011;16244;51.956;12.980;2023-08-20T09:31:09;1.90;;;1.90;;
29200;SDS011;16244;51.956;12.980;2023-08-20T09:33:39;1.95;;;1.85;;
29200;SDS011;16244;51.956;12.980;2023-08-20T09:36:16;2.00;;;2.00;;
29200;SDS011;16244;51.956;12.980;2023-08-20T09:38:44;2.05;;;1.95;;
29200;SDS011;16244;51.956;12.980;2023-08-20T09:41:11;1.75;;;1.65;;
29200;SDS011;16244;51.956;12.980;2023-08-20T09:43:39;1.40;;;1.30;;
29200;SDS011;16244;51.956;12.980;2023-08-20T09:46:12;2.25;;;2.15;;
29200;SDS011;16244;51.956;12.980;2023-08-20T09:48:43;2.08;;;1.95;;
29200;SDS011;16244;51.956;12.980;2023-08-20T09:51:16;1.80;;;1.80;;
29200;SDS011;16244;51.956;12.980;2023-08-20T09:53:51;2.03;;;2.03;;
29200;SDS011;16244;51.956;12.980;2023-08-20T09:56:27;3.28;;;3.17;;
29200;SDS011;16244;51.956;12.980;2023-08-20T09:58:56;4.60;;;2.28;;
29200;SDS011;16244;51.956;12.980;2023-08-20T10:01:25;2.20;;;2.00;;
29200;SDS011;16244;51.956;12.980;2023-08-20T10:03:53;5.88;;;3.13;;
29200;SDS011;16244;51.956;12.980;2023-08-20T10:06:20;2.13;;;2.03;;
29200;SDS011;16244;51.956;12.980;2023-08-20T10:08:49;1.85;;;1.85;;
29200;SDS011;16244;51.956;12.980;2023-08-20T10:11:18;2.25;;;2.00;;
29200;SDS011;16244;51.956;12.980;2023-08-20T10:13:45;2.22;;;2.13;;
29200;SDS011;16244;51.956;12.980;2023-08-20T10:16:14;2.92;;;2.83;;
29200;SDS011;16244;51.956;12.980;2023-08-20T10:18:46;2.22;;;2.22;;
29200;SDS011;16244;51.956;12.980;2023-08-20T10:21:15;1.80;;;1.80;;
29200;SDS011;16244;51.956;12.980;2023-08-20T10:23:44;3.38;;;3.28;;
29200;SDS011;16244;51.956;12.980;2023-08-20T10:26:15;2.33;;;2.22;;
29200;SDS011;16244;51.956;12.980;2023-08-20T10:28:44;2.00;;;1.50;;
29200;SDS011;16244;51.956;12.980;2023-08-20T10:31:12;1.92;;;1.92;;
29200;SDS011;16244;51.956;12.980;2023-08-20T10:33:49;1.98;;;1.92;;
29200;SDS011;16244;51.956;12.980;2023-08-20T10:36:21;1.80;;;1.80;;
29200;SDS011;16244;51.956;12.980;2023-08-20T10:38:54;1.92;;;1.83;;
29200;SDS011;16244;51.956;12.980;2023-08-20T10:41:26;1.70;;;1.70;;
29200;SDS011;16244;51.956;12.980;2023-08-20T10:43:56;1.70;;;1.70;;
29200;SDS011;16244;51.956;12.980;2023-08-20T10:46:25;2.17;;;2.08;;
29200;SDS011;16244;51.956;12.980;2023-08-20T10:48:57;2.13;;;2.08;;
29200;SDS011;16244;51.956;12.980;2023-08-20T10:51:27;1.65;;;1.65;;
29200;SDS011;16244;51.956;12.980;2023-08-20T10:54:02;2.10;;;2.00;;
29200;SDS011;16244;51.956;12.980;2023-08-20T10:56:39;1.90;;;1.67;;
29200;SDS011;16244;51.956;12.980;2023-08-20T10:59:08;2.65;;;2.55;;
29200;SDS011;16244;51.956;12.980;2023-08-20T11:01:36;1.73;;;1.73;;
29200;SDS011;16244;51.956;12.980;2023-08-20T11:04:06;1.50;;;1.50;;
29200;SDS011;16244;51.956;12.980;2023-08-20T11:06:35;1.90;;;1.80;;
29200;SDS011;16244;51.956;12.980;2023-08-20T11:09:05;4.05;;;1.88;;
29200;SDS011;16244;51.956;12.980;2023-08-20T11:11:32;1.52;;;1.42;;
29200;SDS011;16244;51.956;12.980;2023-08-20T11:14:04;1.90;;;1.80;;
29200;SDS011;16244;51.956;12.980;2023-08-20T11:16:33;1.42;;;1.42;;
29200;SDS011;16244;51.956;12.980;2023-08-20T11:19:01;1.80;;;1.80;;
29200;SDS011;16244;51.956;12.980;2023-08-20T11:21:33;1.73;;;1.70;;
29200;SDS011;16244;51.956;12.980;2023-08-20T11:24:01;1.70;;;1.70;;
29200;SDS011;16244;51.956;12.980;2023-08-20T11:26:29;1.75;;;1.65;;
29200;SDS011;16244;51.956;12.980;2023-08-20T11:28:56;2.72;;;2.63;;
29200;SDS011;16244;51.956;12.980;2023-08-20T11:31:25;1.73;;;1.73;;
29200;SDS011;16244;51.956;12.980;2023-08-20T11:33:52;1.80;;;1.80;;
29200;SDS011;16244;51.956;12.980;2023-08-20T11:36:20;3.72;;;1.85;;
29200;SDS011;16244;51.956;12.980;2023-08-20T11:38:50;1.52;;;1.52;;
29200;SDS011;16244;51.956;12.980;2023-08-20T11:41:19;3.75;;;1.85;;
29200;SDS011;16244;51.956;12.980;2023-08-20T11:43:47;2.50;;;2.50;;
29200;SDS011;16244;51.956;12.980;2023-08-20T11:46:15;2.35;;;2.22;;
29200;SDS011;16244;51.956;12.980;2023-08-20T11:48:58;2.03;;;2.03;;
29200;SDS011;16244;51.956;12.980;2023-08-20T11:51:26;1.45;;;1.42;;
29200;SDS011;16244;51.956;12.980;2023-08-20T11:53:55;1.75;;;1.65;;
29200;SDS011;16244;51.956;12.980;2023-08-20T11:56:22;1.50;;;1.50;;
29200;SDS011;16244;51.956;12.980;2023-08-20T11:58:50;2.33;;;2.33;;
29200;SDS011;16244;51.956;12.980;2023-08-20T12:01:18;1.85;;;1.85;;
29200;SDS011;16244;51.956;12.980;2023-08-20T12:03:45;1.95;;;1.95;;
29200;SDS011;16244;51.956;12.980;2023-08-20T12:06:17;2.00;;;1.90;;
29200;SDS011;16244;51.956;12.980;2023-08-20T12:08:45;8.80;;;3.05;;
29200;SDS011;16244;51.956;12.980;2023-08-20T12:11:14;1.55;;;1.55;;
29200;SDS011;16244;51.956;12.980;2023-08-20T12:13:42;1.70;;;1.60;;
29200;SDS011;16244;51.956;12.980;2023-08-20T12:16:09;2.15;;;2.05;;
29200;SDS011;16244;51.956;12.980;2023-08-20T12:18:36;1.95;;;1.85;;
29200;SDS011;16244;51.956;12.980;2023-08-20T12:21:05;2.63;;;2.42;;
29200;SDS011;16244;51.956;12.980;2023-08-20T12:23:32;1.90;;;1.80;;
29200;SDS011;16244;51.956;12.980;2023-08-20T12:26:00;1.40;;;1.40;;
29200;SDS011;16244;51.956;12.980;2023-08-20T12:28:29;1.75;;;1.75;;
29200;SDS011;16244;51.956;12.980;2023-08-20T12:30:56;1.80;;;1.80;;
29200;SDS011;16244;51.956;12.980;2023-08-20T12:33:24;2.00;;;2.00;;
29200;SDS011;16244;51.956;12.980;2023-08-20T12:35:53;2.35;;;2.30;;
29200;SDS011;16244;51.956;12.980;2023-08-20T12:38:21;2.45;;;2.35;;
29200;SDS011;16244;51.956;12.980;2023-08-20T12:40:48;2.28;;;2.17;;
29200;SDS011;16244;51.956;12.980;2023-08-20T12:43:16;2.30;;;2.20;;
29200;SDS011;16244;51.956;12.980;2023-08-20T12:45:45;2.10;;;2.00;;
29200;SDS011;16244;51.956;12.980;2023-08-20T12:48:12;1.70;;;1.70;;
29200;SDS011;16244;51.956;12.980;2023-08-20T12:50:40;2.88;;;2.78;;
29200;SDS011;16244;51.956;12.980;2023-08-20T12:53:08;2.55;;;2.45;;
29200;SDS011;16244;51.956;12.980;2023-08-20T12:55:36;2.00;;;2.00;;
29200;SDS011;16244;51.956;12.980;2023-08-20T12:58:03;2.03;;;1.92;;
29200;SDS011;16244;51.956;12.980;2023-08-20T13:00:31;2.65;;;2.05;;
29200;SDS011;16244;51.956;12.980;2023-08-20T13:03:00;2.72;;;2.13;;
29200;SDS011;16244;51.956;12.980;2023-08-20T13:05:28;3.38;;;2.92;;
29200;SDS011;16244;51.956;12.980;2023-08-20T13:07:56;2.75;;;2.38;;
29200;SDS011;16244;51.956;12.980;2023-08-20T13:10:25;2.67;;;2.58;;
29200;SDS011;16244;51.956;12.980;2023-08-20T13:12:53;2.38;;;2.28;;
29200;SDS011;16244;51.956;12.980;2023-08-20T13:15:21;2.00;;;2.00;;
29200;SDS011;16244;51.956;12.980;2023-08-20T13:17:51;2.03;;;2.03;;
29200;SDS011;16244;51.956;12.980;2023-08-20T13:20:20;1.80;;;1.80;;
29200;SDS011;16244;51.956;12.980;2023-08-20T13:22:49;2.13;;;2.13;;
29200;SDS011;16244;51.956;12.980;2023-08-20T13:25:17;1.77;;;1.67;;
29200;SDS011;16244;51.956;12.980;2023-08-20T13:27:47;2.20;;;2.10;;
29200;SDS011;16244;51.956;12.980;2023-08-20T13:30:15;1.77;;;1.77;;
29200;SDS011;16244;51.956;12.980;2023-08-20T13:32:43;2.20;;;2.10;;
29200;SDS011;16244;51.956;12.980;2023-08-20T13:35:11;2.20;;;2.20;;
29200;SDS011;16244;51.956;12.980;2023-08-20T13:37:41;2.50;;;2.22;;
29200;SDS011;16244;51.956;12.980;2023-08-20T13:40:09;2.30;;;2.20;;
29200;SDS011;16244;51.956;12.980;2023-08-20T13:42:37;2.55;;;2.17;;
29200;SDS011;16244;51.956;12.980;2023-08-20T13:45:05;2.00;;;2.00;;
29200;SDS011;16244;51.956;12.980;2023-08-20T13:47:33;1.90;;;1.90;;
29200;SDS011;16244;51.956;12.980;2023-08-20T13:50:00;2.00;;;1.88;;
29200;SDS011;16244;51.956;12.980;2023-08-20T13:52:30;1.98;;;1.88;;
29200;SDS011;16244;51.956;12.980;2023-08-20T13:54:59;2.20;;;2.10;;
29200;SDS011;16244;51.956;12.980;2023-08-20T13:57:26;2.35;;;1.80;;
29200;SDS011;16244;51.956;12.980;2023-08-20T13:59:54;2.58;;;2.47;;
29200;SDS011;16244;51.956;12.980;2023-08-20T14:02:21;1.50;;;1.50;;
29200;SDS011;16244;51.956;12.980;2023-08-20T14:04:49;2.00;;;1.90;;
29200;SDS011;16244;51.956;12.980;2023-08-20T14:07:17;1.88;;;1.80;;
29200;SDS011;16244;51.956;12.980;2023-08-20T14:09:44;2.05;;;1.95;;
29200;SDS011;16244;51.956;12.980;2023-08-20T14:12:13;1.90;;;1.90;;
29200;SDS011;16244;51.956;12.980;2023-08-20T14:14:41;1.98;;;1.88;;
29200;SDS011;16244;51.956;12.980;2023-08-20T14:17:08;2.00;;;1.90;;
29200;SDS011;16244;51.956;12.980;2023-08-20T14:19:36;1.10;;;0.98;;
29200;SDS011;16244;51.956;12.980;2023-08-20T14:22:03;1.10;;;1.00;;
29200;SDS011;16244;51.956;12.980;2023-08-20T14:24:31;0.98;;;0.98;;
29200;SDS011;16244;51.956;12.980;2023-08-20T14:26:58;1.10;;;1.10;;
29200;SDS011;16244;51.956;12.980;2023-08-20T14:29:27;1.30;;;1.25;;